createdAt,value
2023-04-01T00:04:44.723Z,7.65
2023-04-01T00:09:36.937Z,7.63
2023-04-01T00:14:31.321Z,7.65
2023-04-01T00:19:22.638Z,7.60
2023-04-01T00:24:15.552Z,7.54
2023-04-01T00:29:10.800Z,7.50
2023-04-01T00:34:11.733Z,7.42
2023-04-01T00:39:21.005Z,7.46
2023-04-01T00:44:45.709Z,7.43
2023-04-01T00:49:48.845Z,7.42
2023-04-01T00:54:48.169Z,7.41
2023-04-01T00:59:44.222Z,7.41
2023-04-01T01:04:39.438Z,7.25
2023-04-01T01:09:42.395Z,7.20
2023-04-01T01:14:56.339Z,7.25
2023-04-01T01:20:28.906Z,7.26
2023-04-01T01:25:44.413Z,7.15
2023-04-01T01:30:53.110Z,7.15
2023-04-01T01:35:54.568Z,7.18
2023-04-01T01:40:57.138Z,7.14
2023-04-01T01:45:52.176Z,7.19
2023-04-01T01:50:55.592Z,7.17
2023-04-01T01:55:48.632Z,7.07
2023-04-01T02:00:56.236Z,7.11
2023-04-01T02:05:55.851Z,7.00
2023-04-01T02:10:55.598Z,7.03
2023-04-01T02:15:52.989Z,7.08
2023-04-01T02:20:51.156Z,7.15
2023-04-01T02:25:44.186Z,7.10
2023-04-01T02:30:45.180Z,7.08
2023-04-01T02:35:44.936Z,7.07
2023-04-01T02:40:56.838Z,7.05
2023-04-01T02:46:00.990Z,7.09
2023-04-01T02:50:58.934Z,6.98
2023-04-01T02:55:57.936Z,7.06
2023-04-01T03:00:49.712Z,6.98
2023-04-01T03:05:50.717Z,7.05
2023-04-01T03:10:46.574Z,6.88
2023-04-01T03:16:02.877Z,6.93
2023-04-01T03:21:17.445Z,7.00
2023-04-01T03:26:10.283Z,7.00
2023-04-01T03:31:05.488Z,6.81
2023-04-01T03:36:08.016Z,6.94
2023-04-01T03:41:03.127Z,6.93
2023-04-01T03:45:59.599Z,6.92
2023-04-01T03:50:54.775Z,6.91
2023-04-01T03:55:47.243Z,6.90
2023-04-01T04:00:41.929Z,6.95
2023-04-01T04:05:38.209Z,7.03
2023-04-01T04:10:33.034Z,6.99
2023-04-01T04:15:23.585Z,7.09
2023-04-01T04:20:17.481Z,7.16
2023-04-01T04:25:16.237Z,7.13
2023-04-01T04:30:21.176Z,7.15
2023-04-01T04:35:35.355Z,7.20
2023-04-01T04:40:26.362Z,7.23
2023-04-01T04:45:22.682Z,7.25
2023-04-01T04:50:47.397Z,7.21
2023-04-01T04:55:42.160Z,7.11
2023-04-01T05:00:53.599Z,7.21
2023-04-01T05:06:01.500Z,7.23
2023-04-01T05:10:56.172Z,7.23
2023-04-01T05:16:04.906Z,7.26
2023-04-01T05:21:01.527Z,7.29
2023-04-01T05:25:54.939Z,7.28
2023-04-01T05:30:55.593Z,7.30
2023-04-01T05:36:14.443Z,7.32
2023-04-01T05:41:08.210Z,7.32
2023-04-01T05:46:24.881Z,7.31
2023-04-01T05:51:46.127Z,7.32
2023-04-01T05:56:38.048Z,7.27
2023-04-01T06:01:34.310Z,7.47
2023-04-01T06:06:39.873Z,7.50
2023-04-01T06:11:46.646Z,7.48
2023-04-01T06:16:52.398Z,7.47
2023-04-01T06:22:26.706Z,7.46
2023-04-01T06:27:40.633Z,7.48
2023-04-01T06:32:59.728Z,7.48
2023-04-01T06:38:32.558Z,7.45
2023-04-01T06:43:40.938Z,7.35
2023-04-01T06:49:13.795Z,7.40
2023-04-01T06:54:33.480Z,7.34
2023-04-01T06:59:50.539Z,7.45
2023-04-01T07:04:50.732Z,7.48
2023-04-01T07:09:48.516Z,7.51
2023-04-01T07:15:25.158Z,7.50
2023-04-01T07:20:27.329Z,7.45
2023-04-01T07:25:34.692Z,7.56
2023-04-01T07:31:20.973Z,7.60
2023-04-01T07:36:22.422Z,7.61
2023-04-01T07:41:24.568Z,7.60
2023-04-01T07:46:36.603Z,7.70
2023-04-01T07:51:38.755Z,7.76
2023-04-01T07:56:39.259Z,7.83
2023-04-01T08:01:46.156Z,7.92
2023-04-01T08:06:42.271Z,7.99
2023-04-01T08:11:47.550Z,8.16
2023-04-01T08:17:22.345Z,8.36
2023-04-01T08:22:57.614Z,8.29
2023-04-01T08:28:02.419Z,8.39
2023-04-01T08:33:10.378Z,8.30
2023-04-01T08:38:10.460Z,8.38
2023-04-01T08:43:14.361Z,8.35
2023-04-01T08:48:42.245Z,8.32
2023-04-01T08:53:58.614Z,8.24
2023-04-01T08:59:17.449Z,8.27
2023-04-01T09:04:30.737Z,8.22
2023-04-01T09:09:58.500Z,8.29
2023-04-01T09:15:24.012Z,8.37
2023-04-01T09:20:40.469Z,8.49
2023-04-01T09:25:59.906Z,8.56
2023-04-01T09:31:26.092Z,8.63
2023-04-01T09:36:53.382Z,8.73
2023-04-01T09:42:07.398Z,8.84
2023-04-01T09:47:19.535Z,8.79
2023-04-01T09:52:33.677Z,8.80
2023-04-01T09:58:08.650Z,8.73
2023-04-01T10:03:56.995Z,8.72
2023-04-01T10:09:25.375Z,8.74
2023-04-01T10:14:51.399Z,8.80
2023-04-01T10:20:12.634Z,8.75
2023-04-01T10:25:35.238Z,8.68
2023-04-01T10:31:11.920Z,8.67
2023-04-01T10:36:39.271Z,8.86
2023-04-01T10:42:04.435Z,8.87
2023-04-01T10:47:59.870Z,8.78
2023-04-01T10:53:23.591Z,8.82
2023-04-01T10:59:12.027Z,8.97
2023-04-01T11:05:05.155Z,8.92
2023-04-01T11:11:04.708Z,9.04
2023-04-01T11:16:29.181Z,9.05
2023-04-01T11:22:13.508Z,9.04
2023-04-01T11:27:27.990Z,9.01
2023-04-01T11:32:45.657Z,9.02
2023-04-01T11:37:49.358Z,8.98
2023-04-01T11:43:05.620Z,9.06
2023-04-01T11:48:50.866Z,8.90
2023-04-01T11:53:53.109Z,8.82
2023-04-01T11:59:23.252Z,8.75
2023-04-01T12:04:44.958Z,8.79
2023-04-01T12:09:45.948Z,8.86
2023-04-01T12:14:46.139Z,8.89
2023-04-01T12:19:50.180Z,8.90
2023-04-01T12:24:53.088Z,8.87
2023-04-01T12:30:20.326Z,8.88
2023-04-01T12:35:50.311Z,8.71
2023-04-01T12:41:13.696Z,8.81
2023-04-01T12:46:15.708Z,8.91
2023-04-01T12:51:45.318Z,8.94
2023-04-01T12:56:57.809Z,8.87
2023-04-01T13:02:16.369Z,8.83
2023-04-01T13:07:28.110Z,8.80
2023-04-01T13:12:41.295Z,8.87
2023-04-01T13:17:41.997Z,8.87
2023-04-01T13:22:43.618Z,8.92
2023-04-01T13:27:43.737Z,8.97
2023-04-01T13:32:45.712Z,9.05
2023-04-01T13:37:50.424Z,9.06
2023-04-01T13:42:56.002Z,9.06
2023-04-01T13:48:09.582Z,8.90
2023-04-01T13:53:31.187Z,8.88
2023-04-01T13:58:59.498Z,8.83
2023-04-01T14:04:14.664Z,8.82
2023-04-01T14:09:39.528Z,8.81
2023-04-01T14:14:52.428Z,8.81
2023-04-01T14:20:06.454Z,8.75
2023-04-01T14:25:26.641Z,8.76
2023-04-01T14:30:45.795Z,8.79
2023-04-01T14:35:49.713Z,8.79
2023-04-01T14:41:08.052Z,8.86
2023-04-01T14:46:19.623Z,8.92
2023-04-01T14:51:25.649Z,8.85
2023-04-01T14:56:16.817Z,8.86
2023-04-01T15:01:26.495Z,8.79
2023-04-01T15:06:44.392Z,8.83
2023-04-01T15:11:56.534Z,8.64
2023-04-01T15:17:01.225Z,8.64
2023-04-01T15:22:11.079Z,8.50
2023-04-01T15:27:21.180Z,8.48
2023-04-01T15:32:24.319Z,8.47
2023-04-01T15:37:30.380Z,8.44
2023-04-01T15:42:42.989Z,8.40
2023-04-01T15:47:43.457Z,8.36
2023-04-01T15:52:50.967Z,8.38
2023-04-01T15:57:50.288Z,8.37
2023-04-01T16:02:51.415Z,8.45
2023-04-01T16:07:53.682Z,8.43
2023-04-01T16:12:57.646Z,8.45
2023-04-01T16:18:33.438Z,8.47
2023-04-01T16:23:38.023Z,8.47
2023-04-01T16:28:35.339Z,8.50
2023-04-01T16:33:42.847Z,8.50
2023-04-01T16:38:43.227Z,8.46
2023-04-01T16:43:48.346Z,8.46
2023-04-01T16:49:04.133Z,8.39
2023-04-01T16:54:08.271Z,8.23
2023-04-01T16:59:09.231Z,8.29
2023-04-01T17:04:14.501Z,8.22
2023-04-01T17:09:29.919Z,8.15
2023-04-01T17:14:29.175Z,8.08
2023-04-01T17:19:38.281Z,8.02
2023-04-01T17:24:44.838Z,7.99
2023-04-01T17:30:00.912Z,7.97
2023-04-01T17:35:08.911Z,7.93
2023-04-01T17:40:13.440Z,7.92
2023-04-01T17:45:16.184Z,7.86
2023-04-01T17:50:24.723Z,7.79
2023-04-01T17:55:48.765Z,7.80
2023-04-01T18:00:55.018Z,7.75
2023-04-01T18:06:02.215Z,7.76
2023-04-01T18:11:16.125Z,7.77
2023-04-01T18:16:29.742Z,7.71
2023-04-01T18:21:33.603Z,7.63
2023-04-01T18:26:28.721Z,7.59
2023-04-01T18:31:25.240Z,7.46
2023-04-01T18:36:26.539Z,7.41
2023-04-01T18:41:20.586Z,7.41
2023-04-01T18:46:24.043Z,7.28
2023-04-01T18:51:28.558Z,7.29
2023-04-01T18:56:29.677Z,7.20
2023-04-01T19:01:29.562Z,7.17
2023-04-01T19:06:34.093Z,7.21
2023-04-01T19:11:38.464Z,7.45
2023-04-01T19:16:40.064Z,7.76
2023-04-01T19:21:38.181Z,7.82
2023-04-01T19:26:31.686Z,7.83
2023-04-01T19:31:32.682Z,7.78
2023-04-01T19:36:30.345Z,7.70
2023-04-01T19:41:32.601Z,7.64
2023-04-01T19:46:29.173Z,7.62
2023-04-01T19:51:28.771Z,7.60
2023-04-01T19:56:23.109Z,7.54
2023-04-01T20:01:20.927Z,7.64
2023-04-01T20:06:16.474Z,7.65
2023-04-01T20:11:13.132Z,7.70
2023-04-01T20:16:07.059Z,7.71
2023-04-01T20:21:05.256Z,7.48
2023-04-01T20:25:59.394Z,7.53
2023-04-01T20:31:06.250Z,7.14
2023-04-01T20:36:19.715Z,6.58
2023-04-01T20:41:18.027Z,6.47
2023-04-01T20:46:18.758Z,6.52
2023-04-01T20:51:17.885Z,6.53
2023-04-01T20:56:34.935Z,6.53
2023-04-01T21:01:37.520Z,6.50
2023-04-01T21:07:05.817Z,6.50
2023-04-01T21:12:06.037Z,6.42
2023-04-01T21:17:07.259Z,6.35
2023-04-01T21:22:27.555Z,6.31
2023-04-01T21:27:34.242Z,6.25
2023-04-01T21:32:40.993Z,6.26
2023-04-01T21:37:54.573Z,6.27
2023-04-01T21:42:53.235Z,6.26
2023-04-01T21:48:31.419Z,6.25
2023-04-01T21:54:04.157Z,6.23
2023-04-01T21:59:28.758Z,6.25
2023-04-01T22:04:46.393Z,6.14
2023-04-01T22:09:43.247Z,6.06
2023-04-01T22:14:46.228Z,6.04
2023-04-01T22:19:48.134Z,5.94
2023-04-01T22:24:48.487Z,5.89
2023-04-01T22:29:52.011Z,5.87
2023-04-01T22:34:51.699Z,5.88
2023-04-01T22:40:00.970Z,6.16
2023-04-01T22:45:01.021Z,6.33
2023-04-01T22:49:56.580Z,6.18
2023-04-01T22:54:50.364Z,6.29
2023-04-01T22:59:45.640Z,6.24
2023-04-01T23:04:42.509Z,6.02
2023-04-01T23:09:35.133Z,6.06
2023-04-01T23:14:41.933Z,6.15
2023-04-01T23:19:37.750Z,5.95
2023-04-01T23:24:38.480Z,6.04
2023-04-01T23:29:30.858Z,5.95
2023-04-01T23:34:29.056Z,5.88
2023-04-01T23:39:26.711Z,5.81
2023-04-01T23:44:21.008Z,5.83
2023-04-01T23:49:18.325Z,5.68
2023-04-01T23:54:15.641Z,5.88
2023-04-01T23:59:06.912Z,5.71
